sensor_id;sensor_type;location;lat;lon;timestamp;pressure;altitude;pressure_sealevel;temperature;humidity
65666;BME280;52365;47.464;18.976;2022-11-20T00:00:15;99462.19;;;2.76;70.12
65666;BME280;52365;47.464;18.976;2022-11-20T00:00:51;99460.09;;;2.88;70.15
65666;BME280;52365;47.464;18.976;2022-11-20T00:01:28;99453.34;;;2.83;69.75
65666;BME280;52365;47.464;18.976;2022-11-20T00:02:04;99447.00;;;2.77;69.85
65666;BME280;52365;47.464;18.976;2022-11-20T00:02:40;99447.59;;;2.85;69.81
65666;BME280;52365;47.464;18.976;2022-11-20T00:03:17;99443.94;;;2.78;69.53
65666;BME280;52365;47.464;18.976;2022-11-20T00:03:54;99441.78;;;2.70;69.86
65666;BME280;52365;47.464;18.976;2022-11-20T00:04:31;99441.94;;;3.02;69.39
65666;BME280;52365;47.464;18.976;2022-11-20T00:05:07;99439.81;;;2.74;69.21
65666;BME280;52365;47.464;18.976;2022-11-20T00:05:44;99437.13;;;2.31;70.44
65666;BME280;52365;47.464;18.976;2022-11-20T00:06:21;99441.53;;;2.17;71.18
65666;BME280;52365;47.464;18.976;2022-11-20T00:06:57;99440.19;;;2.29;71.41
65666;BME280;52365;47.464;18.976;2022-11-20T00:07:33;99442.06;;;2.75;70.99
65666;BME280;52365;47.464;18.976;2022-11-20T00:08:10;99439.38;;;2.56;70.88
65666;BME280;52365;47.464;18.976;2022-11-20T00:08:46;99442.09;;;2.52;71.00
65666;BME280;52365;47.464;18.976;2022-11-20T00:09:22;99446.63;;;2.55;70.61
65666;BME280;52365;47.464;18.976;2022-11-20T00:09:58;99441.62;;;2.57;70.20
65666;BME280;52365;47.464;18.976;2022-11-20T00:10:38;99437.41;;;2.60;69.72
65666;BME280;52365;47.464;18.976;2022-11-20T00:11:17;99444.81;;;2.92;69.54
65666;BME280;52365;47.464;18.976;2022-11-20T00:11:54;99438.84;;;3.08;68.85
65666;BME280;52365;47.464;18.976;2022-11-20T00:12:30;99440.03;;;3.43;67.85
65666;BME280;52365;47.464;18.976;2022-11-20T00:13:07;99452.66;;;2.79;68.09
65666;BME280;52365;47.464;18.976;2022-11-20T00:13:45;99448.91;;;2.53;68.75
65666;BME280;52365;47.464;18.976;2022-11-20T00:14:22;99451.09;;;2.58;69.33
65666;BME280;52365;47.464;18.976;2022-11-20T00:14:58;99445.19;;;2.50;69.63
65666;BME280;52365;47.464;18.976;2022-11-20T00:15:34;99452.16;;;2.41;70.06
65666;BME280;52365;47.464;18.976;2022-11-20T00:16:11;99451.41;;;2.64;69.34
65666;BME280;52365;47.464;18.976;2022-11-20T00:16:48;99448.75;;;2.64;69.19
65666;BME280;52365;47.464;18.976;2022-11-20T00:17:24;99444.28;;;2.57;69.20
65666;BME280;52365;47.464;18.976;2022-11-20T00:18:00;99442.22;;;2.88;68.76
65666;BME280;52365;47.464;18.976;2022-11-20T00:18:36;99448.31;;;3.09;68.18
65666;BME280;52365;47.464;18.976;2022-11-20T00:19:12;99446.81;;;2.88;67.87
65666;BME280;52365;47.464;18.976;2022-11-20T00:19:48;99446.53;;;2.59;68.23
65666;BME280;52365;47.464;18.976;2022-11-20T00:20:24;99439.34;;;2.79;68.09
65666;BME280;52365;47.464;18.976;2022-11-20T00:21:05;99446.41;;;3.09;67.58
65666;BME280;52365;47.464;18.976;2022-11-20T00:21:41;99443.41;;;3.27;66.79
65666;BME280;52365;47.464;18.976;2022-11-20T00:22:17;99448.81;;;3.03;66.95
65666;BME280;52365;47.464;18.976;2022-11-20T00:22:53;99443.31;;;2.91;67.41
65666;BME280;52365;47.464;18.976;2022-11-20T00:23:30;99461.38;;;2.80;67.55
65666;BME280;52365;47.464;18.976;2022-11-20T00:24:08;99463.25;;;2.36;68.48
65666;BME280;52365;47.464;18.976;2022-11-20T00:24:45;99464.88;;;2.53;68.79
65666;BME280;52365;47.464;18.976;2022-11-20T00:25:21;99461.59;;;2.69;68.42
65666;BME280;52365;47.464;18.976;2022-11-20T00:26:12;99472.59;;;2.91;67.93
65666;BME280;52365;47.464;18.976;2022-11-20T00:26:48;99470.09;;;2.60;68.05
65666;BME280;52365;47.464;18.976;2022-11-20T00:27:24;99464.47;;;2.98;67.30
65666;BME280;52365;47.464;18.976;2022-11-20T00:28:00;99464.69;;;3.07;66.88
65666;BME280;52365;47.464;18.976;2022-11-20T00:28:36;99459.34;;;3.07;66.73
65666;BME280;52365;47.464;18.976;2022-11-20T00:29:13;99454.09;;;2.84;67.03
65666;BME280;52365;47.464;18.976;2022-11-20T00:29:49;99451.84;;;3.02;67.01
65666;BME280;52365;47.464;18.976;2022-11-20T00:30:25;99453.28;;;3.07;66.81
65666;BME280;52365;47.464;18.976;2022-11-20T00:31:14;99456.78;;;3.23;66.31
65666;BME280;52365;47.464;18.976;2022-11-20T00:31:50;99441.47;;;3.27;65.83
65666;BME280;52365;47.464;18.976;2022-11-20T00:32:26;99450.41;;;3.37;65.45
65666;BME280;52365;47.464;18.976;2022-11-20T00:33:03;99452.41;;;3.13;65.66
65666;BME280;52365;47.464;18.976;2022-11-20T00:33:39;99455.62;;;3.05;65.95
65666;BME280;52365;47.464;18.976;2022-11-20T00:34:15;99465.25;;;3.18;65.82
65666;BME280;52365;47.464;18.976;2022-11-20T00:34:51;99455.75;;;3.17;66.04
65666;BME280;52365;47.464;18.976;2022-11-20T00:35:27;99468.19;;;3.24;65.63
65666;BME280;52365;47.464;18.976;2022-11-20T00:36:12;99467.28;;;3.50;65.54
65666;BME280;52365;47.464;18.976;2022-11-20T00:36:48;99475.34;;;3.47;65.17
65666;BME280;52365;47.464;18.976;2022-11-20T00:37:24;99473.78;;;3.49;65.19
65666;BME280;52365;47.464;18.976;2022-11-20T00:38:00;99470.97;;;3.37;65.30
65666;BME280;52365;47.464;18.976;2022-11-20T00:38:36;99484.69;;;3.15;65.93
65666;BME280;52365;47.464;18.976;2022-11-20T00:39:12;99489.41;;;3.27;65.55
65666;BME280;52365;47.464;18.976;2022-11-20T00:39:48;99492.94;;;3.01;66.29
65666;BME280;52365;47.464;18.976;2022-11-20T00:40:24;99487.25;;;3.22;66.32
65666;BME280;52365;47.464;18.976;2022-11-20T00:41:03;99486.62;;;3.15;66.09
65666;BME280;52365;47.464;18.976;2022-11-20T00:41:39;99488.84;;;2.96;66.35
65666;BME280;52365;47.464;18.976;2022-11-20T00:42:15;99484.28;;;2.97;66.25
65666;BME280;52365;47.464;18.976;2022-11-20T00:42:52;99483.53;;;2.96;66.62
65666;BME280;52365;47.464;18.976;2022-11-20T00:43:28;99469.00;;;3.01;66.56
65666;BME280;52365;47.464;18.976;2022-11-20T00:44:04;99469.16;;;3.34;66.26
65666;BME280;52365;47.464;18.976;2022-11-20T00:44:40;99458.41;;;3.37;65.67
65666;BME280;52365;47.464;18.976;2022-11-20T00:45:16;99467.28;;;2.91;66.52
65666;BME280;52365;47.464;18.976;2022-11-20T00:46:34;99458.34;;;2.81;67.23
65666;BME280;52365;47.464;18.976;2022-11-20T00:47:10;99452.94;;;3.24;66.65
65666;BME280;52365;47.464;18.976;2022-11-20T00:47:46;99444.50;;;3.10;66.41
65666;BME280;52365;47.464;18.976;2022-11-20T00:48:22;99449.28;;;3.18;66.10
65666;BME280;52365;47.464;18.976;2022-11-20T00:48:58;99447.03;;;3.17;66.19
65666;BME280;52365;47.464;18.976;2022-11-20T00:49:34;99461.75;;;2.58;67.13
65666;BME280;52365;47.464;18.976;2022-11-20T00:50:10;99452.37;;;2.73;67.62
65666;BME280;52365;47.464;18.976;2022-11-20T00:50:46;99445.16;;;2.94;67.25
65666;BME280;52365;47.464;18.976;2022-11-20T00:51:24;99450.81;;;2.76;67.32
65666;BME280;52365;47.464;18.976;2022-11-20T00:52:00;99446.84;;;2.84;67.37
65666;BME280;52365;47.464;18.976;2022-11-20T00:52:36;99447.75;;;2.77;67.79
65666;BME280;52365;47.464;18.976;2022-11-20T00:53:12;99442.97;;;2.89;67.96
65666;BME280;52365;47.464;18.976;2022-11-20T00:53:49;99451.78;;;2.86;67.71
65666;BME280;52365;47.464;18.976;2022-11-20T00:54:28;99446.22;;;2.76;67.67
65666;BME280;52365;47.464;18.976;2022-11-20T00:55:04;99449.34;;;2.71;67.91
65666;BME280;52365;47.464;18.976;2022-11-20T00:55:40;99440.69;;;2.67;68.12
65666;BME280;52365;47.464;18.976;2022-11-20T00:56:18;99439.84;;;2.94;67.95
65666;BME280;52365;47.464;18.976;2022-11-20T00:56:54;99441.97;;;2.36;68.33
65666;BME280;52365;47.464;18.976;2022-11-20T00:57:31;99442.16;;;2.25;69.36
65666;BME280;52365;47.464;18.976;2022-11-20T00:58:07;99440.81;;;2.37;69.25
65666;BME280;52365;47.464;18.976;2022-11-20T00:58:45;99438.41;;;2.46;69.34
65666;BME280;52365;47.464;18.976;2022-11-20T00:59:21;99443.78;;;2.42;69.17
65666;BME280;52365;47.464;18.976;2022-11-20T00:59:57;99441.56;;;2.61;69.17
65666;BME280;52365;47.464;18.976;2022-11-20T01:00:34;99442.66;;;2.63;68.68
65666;BME280;52365;47.464;18.976;2022-11-20T01:01:14;99442.53;;;2.50;68.72
65666;BME280;52365;47.464;18.976;2022-11-20T01:01:50;99440.94;;;2.53;68.85
65666;BME280;52365;47.464;18.976;2022-11-20T01:02:26;99441.75;;;2.26;69.14
65666;BME280;52365;47.464;18.976;2022-11-20T01:03:02;99438.38;;;2.69;69.00
65666;BME280;52365;47.464;18.976;2022-11-20T01:03:42;99437.69;;;2.65;68.47
65666;BME280;52365;47.464;18.976;2022-11-20T01:04:19;99431.72;;;2.81;68.43
65666;BME280;52365;47.464;18.976;2022-11-20T01:04:55;99445.00;;;2.61;68.34
65666;BME280;52365;47.464;18.976;2022-11-20T01:05:34;99443.25;;;2.74;68.34
65666;BME280;52365;47.464;18.976;2022-11-20T01:06:20;99442.03;;;2.99;67.82
65666;BME280;52365;47.464;18.976;2022-11-20T01:06:56;99448.09;;;2.80;68.11
65666;BME280;52365;47.464;18.976;2022-11-20T01:07:32;99441.59;;;2.81;68.39
65666;BME280;52365;47.464;18.976;2022-11-20T01:08:08;99438.25;;;2.76;68.30
65666;BME280;52365;47.464;18.976;2022-11-20T01:08:45;99451.63;;;2.73;68.41
65666;BME280;52365;47.464;18.976;2022-11-20T01:09:22;99441.00;;;2.49;68.62
65666;BME280;52365;47.464;18.976;2022-11-20T01:09:58;99441.34;;;2.28;69.35
65666;BME280;52365;47.464;18.976;2022-11-20T01:10:34;99448.97;;;2.49;69.37
65666;BME280;52365;47.464;18.976;2022-11-20T01:11:13;99455.78;;;2.74;69.15
65666;BME280;52365;47.464;18.976;2022-11-20T01:11:49;99450.19;;;2.68;68.61
65666;BME280;52365;47.464;18.976;2022-11-20T01:12:25;99454.00;;;2.44;68.79
65666;BME280;52365;47.464;18.976;2022-11-20T01:13:01;99452.16;;;2.41;69.65
65666;BME280;52365;47.464;18.976;2022-11-20T01:13:57;99456.78;;;2.60;69.38
65666;BME280;52365;47.464;18.976;2022-11-20T01:14:34;99450.19;;;2.68;69.45
65666;BME280;52365;47.464;18.976;2022-11-20T01:15:10;99454.22;;;2.76;68.74
65666;BME280;52365;47.464;18.976;2022-11-20T01:15:46;99449.09;;;2.66;69.12
65666;BME280;52365;47.464;18.976;2022-11-20T01:16:28;99453.81;;;2.78;69.00
65666;BME280;52365;47.464;18.976;2022-11-20T01:17:05;99450.28;;;2.85;68.61
65666;BME280;52365;47.464;18.976;2022-11-20T01:17:41;99455.31;;;2.79;68.61
65666;BME280;52365;47.464;18.976;2022-11-20T01:18:17;99459.44;;;2.60;68.84
65666;BME280;52365;47.464;18.976;2022-11-20T01:18:55;99451.91;;;2.78;68.82
65666;BME280;52365;47.464;18.976;2022-11-20T01:19:32;99460.69;;;2.75;69.23
65666;BME280;52365;47.464;18.976;2022-11-20T01:20:08;99455.97;;;2.63;69.19
65666;BME280;52365;47.464;18.976;2022-11-20T01:20:44;99449.72;;;2.93;68.95
65666;BME280;52365;47.464;18.976;2022-11-20T01:21:29;99461.81;;;2.78;69.05
65666;BME280;52365;47.464;18.976;2022-11-20T01:22:05;99465.53;;;2.81;68.95
65666;BME280;52365;47.464;18.976;2022-11-20T01:22:41;99463.19;;;3.06;68.99
65666;BME280;52365;47.464;18.976;2022-11-20T01:23:17;99454.25;;;2.53;69.31
65666;BME280;52365;47.464;18.976;2022-11-20T01:23:53;99459.53;;;2.76;69.59
65666;BME280;52365;47.464;18.976;2022-11-20T01:24:30;99457.00;;;2.69;69.39
65666;BME280;52365;47.464;18.976;2022-11-20T01:25:06;99459.69;;;2.46;70.36
65666;BME280;52365;47.464;18.976;2022-11-20T01:25:42;99467.78;;;2.39;71.01
65666;BME280;52365;47.464;18.976;2022-11-20T01:26:23;99461.81;;;2.55;71.02
65666;BME280;52365;47.464;18.976;2022-11-20T01:27:00;99458.03;;;2.75;70.46
65666;BME280;52365;47.464;18.976;2022-11-20T01:27:36;99459.16;;;2.78;70.56
65666;BME280;52365;47.464;18.976;2022-11-20T01:28:12;99457.53;;;3.04;69.96
65666;BME280;52365;47.464;18.976;2022-11-20T01:28:48;99454.59;;;3.18;69.39
65666;BME280;52365;47.464;18.976;2022-11-20T01:29:25;99452.75;;;3.15;68.78
65666;BME280;52365;47.464;18.976;2022-11-20T01:30:01;99453.50;;;2.96;69.13
65666;BME280;52365;47.464;18.976;2022-11-20T01:30:37;99452.59;;;2.83;69.40
65666;BME280;52365;47.464;18.976;2022-11-20T01:31:52;99457.00;;;2.69;69.93
65666;BME280;52365;47.464;18.976;2022-11-20T01:32:28;99453.88;;;2.74;70.00
65666;BME280;52365;47.464;18.976;2022-11-20T01:33:04;99453.38;;;3.03;69.39
65666;BME280;52365;47.464;18.976;2022-11-20T01:33:41;99441.00;;;2.49;69.83
65666;BME280;52365;47.464;18.976;2022-11-20T01:34:18;99442.75;;;2.80;69.75
65666;BME280;52365;47.464;18.976;2022-11-20T01:34:55;99452.59;;;3.02;68.70
65666;BME280;52365;47.464;18.976;2022-11-20T01:35:31;99448.28;;;2.89;68.52
65666;BME280;52365;47.464;18.976;2022-11-20T01:36:07;99443.94;;;3.18;67.97
65666;BME280;52365;47.464;18.976;2022-11-20T01:36:44;99450.91;;;3.12;67.81
65666;BME280;52365;47.464;18.976;2022-11-20T01:37:20;99445.25;;;3.30;67.67
65666;BME280;52365;47.464;18.976;2022-11-20T01:37:57;99442.25;;;3.08;67.86
65666;BME280;52365;47.464;18.976;2022-11-20T01:38:33;99440.53;;;2.98;67.90
65666;BME280;52365;47.464;18.976;2022-11-20T01:39:13;99438.84;;;3.08;67.54
65666;BME280;52365;47.464;18.976;2022-11-20T01:39:49;99443.31;;;3.31;67.21
65666;BME280;52365;47.464;18.976;2022-11-20T01:40:25;99432.00;;;3.26;66.80
65666;BME280;52365;47.464;18.976;2022-11-20T01:41:02;99433.16;;;3.25;66.97
65666;BME280;52365;47.464;18.976;2022-11-20T01:41:38;99440.50;;;3.38;66.78
65666;BME280;52365;47.464;18.976;2022-11-20T01:42:33;99443.59;;;3.36;66.63
65666;BME280;52365;47.464;18.976;2022-11-20T01:43:28;99447.88;;;3.50;66.58
65666;BME280;52365;47.464;18.976;2022-11-20T01:44:05;99437.84;;;3.38;67.28
65666;BME280;52365;47.464;18.976;2022-11-20T01:44:55;99427.06;;;3.45;67.13
65666;BME280;52365;47.464;18.976;2022-11-20T01:46:39;99430.63;;;3.38;67.43
65666;BME280;52365;47.464;18.976;2022-11-20T01:47:21;99433.97;;;3.22;68.37
65666;BME280;52365;47.464;18.976;2022-11-20T01:47:59;99435.09;;;3.25;68.42
65666;BME280;52365;47.464;18.976;2022-11-20T01:48:44;99435.16;;;3.21;68.77
65666;BME280;52365;47.464;18.976;2022-11-20T01:49:34;99431.81;;;3.17;68.84
65666;BME280;52365;47.464;18.976;2022-11-20T01:50:25;99435.53;;;3.20;69.02
65666;BME280;52365;47.464;18.976;2022-11-20T01:51:03;99429.03;;;3.41;68.67
65666;BME280;52365;47.464;18.976;2022-11-20T01:52:13;99432.34;;;3.65;68.08
65666;BME280;52365;47.464;18.976;2022-11-20T01:53:33;99431.69;;;3.41;68.68
65666;BME280;52365;47.464;18.976;2022-11-20T01:54:17;99431.00;;;3.57;67.99
65666;BME280;52365;47.464;18.976;2022-11-20T01:55:02;99426.41;;;3.01;68.83
65666;BME280;52365;47.464;18.976;2022-11-20T01:55:43;99431.72;;;3.21;69.13
65666;BME280;52365;47.464;18.976;2022-11-20T01:56:21;99447.25;;;3.42;68.83
65666;BME280;52365;47.464;18.976;2022-11-20T01:56:59;99438.06;;;3.47;68.25
65666;BME280;52365;47.464;18.976;2022-11-20T01:57:37;99433.16;;;3.25;68.72
65666;BME280;52365;47.464;18.976;2022-11-20T01:58:15;99432.34;;;3.65;68.26
65666;BME280;52365;47.464;18.976;2022-11-20T01:58:54;99433.75;;;3.33;68.33
65666;BME280;52365;47.464;18.976;2022-11-20T01:59:33;99434.66;;;3.63;68.52
65666;BME280;52365;47.464;18.976;2022-11-20T02:00:12;99431.59;;;3.64;68.10
65666;BME280;52365;47.464;18.976;2022-11-20T02:00:48;99432.31;;;3.28;68.45
65666;BME280;52365;47.464;18.976;2022-11-20T02:01:24;99429.87;;;3.18;69.28
65666;BME280;52365;47.464;18.976;2022-11-20T02:02:01;99424.00;;;3.26;69.83
65666;BME280;52365;47.464;18.976;2022-11-20T02:02:37;99439.56;;;3.48;69.36
65666;BME280;52365;47.464;18.976;2022-11-20T02:03:17;99440.22;;;3.52;68.99
65666;BME280;52365;47.464;18.976;2022-11-20T02:03:55;99426.47;;;3.73;68.29
65666;BME280;52365;47.464;18.976;2022-11-20T02:04:32;99436.66;;;3.59;68.21
65666;BME280;52365;47.464;18.976;2022-11-20T02:06:35;99437.72;;;3.45;68.40
65666;BME280;52365;47.464;18.976;2022-11-20T02:07:13;99437.75;;;3.25;69.05
65666;BME280;52365;47.464;18.976;2022-11-20T02:07:50;99441.38;;;3.51;68.96
65666;BME280;52365;47.464;18.976;2022-11-20T02:08:26;99433.59;;;3.60;68.85
65666;BME280;52365;47.464;18.976;2022-11-20T02:09:02;99437.00;;;3.61;68.54
65666;BME280;52365;47.464;18.976;2022-11-20T02:09:38;99434.56;;;3.50;68.79
65666;BME280;52365;47.464;18.976;2022-11-20T02:10:15;99441.38;;;3.51;69.34
65666;BME280;52365;47.464;18.976;2022-11-20T02:10:51;99442.97;;;3.48;69.78
65666;BME280;52365;47.464;18.976;2022-11-20T02:11:27;99435.03;;;3.45;70.44
65666;BME280;52365;47.464;18.976;2022-11-20T02:12:05;99439.50;;;3.51;70.64
65666;BME280;52365;47.464;18.976;2022-11-20T02:13:01;99441.66;;;3.73;69.82
65666;BME280;52365;47.464;18.976;2022-11-20T02:13:56;99445.19;;;3.86;68.76
65666;BME280;52365;47.464;18.976;2022-11-20T02:14:33;99447.72;;;3.57;69.72
65666;BME280;52365;47.464;18.976;2022-11-20T02:15:09;99438.47;;;3.45;70.18
65666;BME280;52365;47.464;18.976;2022-11-20T02:15:45;99435.84;;;3.42;70.87
65666;BME280;52365;47.464;18.976;2022-11-20T02:16:23;99439.19;;;3.46;70.79
65666;BME280;52365;47.464;18.976;2022-11-20T02:17:00;99440.44;;;3.41;70.77
65666;BME280;52365;47.464;18.976;2022-11-20T02:17:37;99432.72;;;3.47;70.82
65666;BME280;52365;47.464;18.976;2022-11-20T02:18:19;99431.50;;;3.32;70.96
65666;BME280;52365;47.464;18.976;2022-11-20T02:18:58;99430.88;;;3.24;70.92
65666;BME280;52365;47.464;18.976;2022-11-20T02:19:34;99436.56;;;3.06;71.35
65666;BME280;52365;47.464;18.976;2022-11-20T02:20:11;99433.00;;;3.33;71.49
65666;BME280;52365;47.464;18.976;2022-11-20T02:20:50;99431.88;;;3.34;71.18
65666;BME280;52365;47.464;18.976;2022-11-20T02:22:14;99440.97;;;3.52;70.43
65666;BME280;52365;47.464;18.976;2022-11-20T02:22:58;99437.56;;;3.52;69.93
65666;BME280;52365;47.464;18.976;2022-11-20T02:24:18;99446.06;;;3.27;70.25
65666;BME280;52365;47.464;18.976;2022-11-20T02:24:34;99446.50;;;3.42;70.12
65666;BME280;52365;47.464;18.976;2022-11-20T02:25:11;99451.84;;;3.42;70.17
65666;BME280;52365;47.464;18.976;2022-11-20T02:25:47;99447.34;;;3.19;70.78
65666;BME280;52365;47.464;18.976;2022-11-20T02:26:26;99450.09;;;3.15;71.26
65666;BME280;52365;47.464;18.976;2022-11-20T02:27:12;99453.28;;;3.46;70.92
65666;BME280;52365;47.464;18.976;2022-11-20T02:27:49;99448.94;;;3.16;71.12
65666;BME280;52365;47.464;18.976;2022-11-20T02:28:25;99446.69;;;2.95;71.85
65666;BME280;52365;47.464;18.976;2022-11-20T02:29:02;99447.41;;;3.15;71.73
65666;BME280;52365;47.464;18.976;2022-11-20T02:29:50;99446.47;;;3.25;71.93
65666;BME280;52365;47.464;18.976;2022-11-20T02:30:27;99441.84;;;3.30;71.37
65666;BME280;52365;47.464;18.976;2022-11-20T02:31:03;99437.59;;;3.12;71.57
65666;BME280;52365;47.464;18.976;2022-11-20T02:31:41;99440.31;;;3.28;71.44
65666;BME280;52365;47.464;18.976;2022-11-20T02:32:19;99434.22;;;3.48;71.02
65666;BME280;52365;47.464;18.976;2022-11-20T02:32:57;99424.53;;;3.38;70.93
65666;BME280;52365;47.464;18.976;2022-11-20T02:33:33;99420.75;;;3.55;70.80
65666;BME280;52365;47.464;18.976;2022-11-20T02:34:09;99420.56;;;3.46;71.08
65666;BME280;52365;47.464;18.976;2022-11-20T02:34:45;99424.88;;;3.20;71.31
65666;BME280;52365;47.464;18.976;2022-11-20T02:35:57;99429.37;;;3.43;71.54
65666;BME280;52365;47.464;18.976;2022-11-20T02:36:34;99423.72;;;3.41;71.30
65666;BME280;52365;47.464;18.976;2022-11-20T02:37:12;99430.09;;;3.63;71.23
65666;BME280;52365;47.464;18.976;2022-11-20T02:37:50;99426.72;;;3.43;71.55
65666;BME280;52365;47.464;18.976;2022-11-20T02:38:28;99432.44;;;3.61;71.13
65666;BME280;52365;47.464;18.976;2022-11-20T02:39:04;99428.44;;;3.69;70.90
65666;BME280;52365;47.464;18.976;2022-11-20T02:39:41;99421.28;;;3.66;71.16
65666;BME280;52365;47.464;18.976;2022-11-20T02:40:17;99426.53;;;3.86;70.56
65666;BME280;52365;47.464;18.976;2022-11-20T02:40:53;99434.53;;;4.02;69.67
65666;BME280;52365;47.464;18.976;2022-11-20T02:41:34;99428.13;;;4.16;68.80
65666;BME280;52365;47.464;18.976;2022-11-20T02:42:10;99431.56;;;4.00;68.57
65666;BME280;52365;47.464;18.976;2022-11-20T02:42:46;99419.97;;;3.74;69.27
65666;BME280;52365;47.464;18.976;2022-11-20T02:43:22;99421.19;;;3.86;69.71
65666;BME280;52365;47.464;18.976;2022-11-20T02:43:59;99422.37;;;3.69;69.82
65666;BME280;52365;47.464;18.976;2022-11-20T02:44:35;99424.16;;;3.56;70.21
65666;BME280;52365;47.464;18.976;2022-11-20T02:45:11;99423.44;;;3.71;70.00
65666;BME280;52365;47.464;18.976;2022-11-20T02:45:47;99423.41;;;3.91;69.62
65666;BME280;52365;47.464;18.976;2022-11-20T02:46:23;99418.53;;;3.70;69.62
65666;BME280;52365;47.464;18.976;2022-11-20T02:46:59;99416.94;;;3.72;69.61
65666;BME280;52365;47.464;18.976;2022-11-20T02:47:36;99425.78;;;3.69;70.06
65666;BME280;52365;47.464;18.976;2022-11-20T02:48:12;99424.94;;;3.56;70.17
65666;BME280;52365;47.464;18.976;2022-11-20T02:48:48;99421.94;;;3.70;70.06
65666;BME280;52365;47.464;18.976;2022-11-20T02:49:24;99422.78;;;3.84;69.45
65666;BME280;52365;47.464;18.976;2022-11-20T02:50:00;99422.84;;;3.64;69.63
65666;BME280;52365;47.464;18.976;2022-11-20T02:50:37;99425.50;;;3.64;70.09
65666;BME280;52365;47.464;18.976;2022-11-20T02:51:14;99427.88;;;3.78;69.66
65666;BME280;52365;47.464;18.976;2022-11-20T02:51:51;99424.56;;;3.54;69.96
65666;BME280;52365;47.464;18.976;2022-11-20T02:52:27;99426.50;;;3.53;70.00
65666;BME280;52365;47.464;18.976;2022-11-20T02:53:03;99423.75;;;3.57;70.29
65666;BME280;52365;47.464;18.976;2022-11-20T02:53:39;99427.88;;;3.94;69.63
65666;BME280;52365;47.464;18.976;2022-11-20T02:54:15;99429.22;;;4.02;68.88
65666;BME280;52365;47.464;18.976;2022-11-20T02:54:52;99434.81;;;3.92;69.04
65666;BME280;52365;47.464;18.976;2022-11-20T02:55:28;99428.94;;;3.81;69.31
65666;BME280;52365;47.464;18.976;2022-11-20T02:56:04;99427.41;;;3.63;69.40
65666;BME280;52365;47.464;18.976;2022-11-20T02:56:40;99428.53;;;3.46;69.99
65666;BME280;52365;47.464;18.976;2022-11-20T02:57:17;99429.41;;;3.59;70.44
65666;BME280;52365;47.464;18.976;2022-11-20T02:57:53;99424.59;;;3.70;69.99
65666;BME280;52365;47.464;18.976;2022-11-20T02:58:29;99422.78;;;3.84;69.80
65666;BME280;52365;47.464;18.976;2022-11-20T02:59:05;99424.97;;;3.89;69.35
65666;BME280;52365;47.464;18.976;2022-11-20T02:59:41;99418.69;;;3.63;69.46
65666;BME280;52365;47.464;18.976;2022-11-20T03:00:17;99410.81;;;3.56;70.06
65666;BME280;52365;47.464;18.976;2022-11-20T03:00:53;99415.38;;;3.75;70.32
65666;BME280;52365;47.464;18.976;2022-11-20T03:01:30;99412.06;;;3.87;69.83
65666;BME280;52365;47.464;18.976;2022-11-20T03:02:06;99409.38;;;4.03;69.34
65666;BME280;52365;47.464;18.976;2022-11-20T03:02:42;99408.31;;;4.01;69.09
65666;BME280;52365;47.464;18.976;2022-11-20T03:03:18;99415.88;;;4.19;68.85
65666;BME280;52365;47.464;18.976;2022-11-20T03:03:54;99407.37;;;4.24;68.70
65666;BME280;52365;47.464;18.976;2022-11-20T03:04:30;99407.13;;;4.02;68.73
65666;BME280;52365;47.464;18.976;2022-11-20T03:05:06;99402.81;;;3.92;69.31
65666;BME280;52365;47.464;18.976;2022-11-20T03:05:42;99406.94;;;3.60;69.43
65666;BME280;52365;47.464;18.976;2022-11-20T03:06:18;99402.78;;;3.75;69.40
65666;BME280;52365;47.464;18.976;2022-11-20T03:06:54;99407.47;;;3.88;69.28
65666;BME280;52365;47.464;18.976;2022-11-20T03:07:30;99393.72;;;3.89;69.19
65666;BME280;52365;47.464;18.976;2022-11-20T03:08:06;99396.81;;;3.88;68.98
65666;BME280;52365;47.464;18.976;2022-11-20T03:08:43;99395.31;;;3.87;69.09
65666;BME280;52365;47.464;18.976;2022-11-20T03:09:19;99390.41;;;4.01;68.71
65666;BME280;52365;47.464;18.976;2022-11-20T03:09:55;99401.41;;;3.87;68.70
65666;BME280;52365;47.464;18.976;2022-11-20T03:10:31;99395.31;;;3.87;69.49
65666;BME280;52365;47.464;18.976;2022-11-20T03:11:08;99403.97;;;4.23;68.78
65666;BME280;52365;47.464;18.976;2022-11-20T03:11:44;99403.97;;;3.91;68.34
65666;BME280;52365;47.464;18.976;2022-11-20T03:12:20;99402.16;;;4.04;68.57
65666;BME280;52365;47.464;18.976;2022-11-20T03:12:56;99402.66;;;3.83;68.41
65666;BME280;52365;47.464;18.976;2022-11-20T03:13:32;99403.12;;;4.10;68.41
65666;BME280;52365;47.464;18.976;2022-11-20T03:14:09;99400.56;;;4.23;67.96
65666;BME280;52365;47.464;18.976;2022-11-20T03:14:45;99395.94;;;4.40;67.34
65666;BME280;52365;47.464;18.976;2022-11-20T03:15:22;99395.28;;;4.19;67.33
65666;BME280;52365;47.464;18.976;2022-11-20T03:15:58;99399.87;;;4.19;67.48
65666;BME280;52365;47.464;18.976;2022-11-20T03:16:40;99399.06;;;4.06;67.94
65666;BME280;52365;47.464;18.976;2022-11-20T03:17:16;99402.62;;;3.66;68.22
65666;BME280;52365;47.464;18.976;2022-11-20T03:17:53;99399.72;;;3.93;68.58
65666;BME280;52365;47.464;18.976;2022-11-20T03:18:30;99402.62;;;3.99;68.19
65666;BME280;52365;47.464;18.976;2022-11-20T03:19:06;99403.56;;;3.92;68.59
65666;BME280;52365;47.464;18.976;2022-11-20T03:19:42;99411.88;;;3.94;68.85
65666;BME280;52365;47.464;18.976;2022-11-20T03:20:18;99408.47;;;3.94;69.08
65666;BME280;52365;47.464;18.976;2022-11-20T03:20:57;99409.22;;;3.78;68.88
65666;BME280;52365;47.464;18.976;2022-11-20T03:21:34;99414.47;;;4.14;68.49
65666;BME280;52365;47.464;18.976;2022-11-20T03:22:10;99418.47;;;4.06;68.32
65666;BME280;52365;47.464;18.976;2022-11-20T03:22:46;99420.28;;;4.25;67.78
65666;BME280;52365;47.464;18.976;2022-11-20T03:23:22;99429.81;;;4.26;67.29
65666;BME280;52365;47.464;18.976;2022-11-20T03:23:58;99430.06;;;4.16;67.46
65666;BME280;52365;47.464;18.976;2022-11-20T03:24:35;99433.06;;;4.01;67.62
65666;BME280;52365;47.464;18.976;2022-11-20T03:25:11;99433.97;;;4.27;67.42